Time;durP1;ratioP1;P1;durP2;ratioP2;P2;SDS_P1;SDS_P2;PMS_P1;PMS_P2;Temp;Humidity;BMP_temperature;BMP_pressure;BME280_temperature;BME280_humidity;BME280_pressure;Samples;Min_cycle;Max_cycle;Signal;HPM_P1;HPM_P2
2020/12/14 00:01:19;;;;;;;83.32;27.35;;;4.90;99.00;;;;;;5035342;28;20079;-69
2020/12/14 00:03:45;;;;;;;97.47;28.88;;;4.90;99.00;;;;;;5035517;28;20068;-68
2020/12/14 00:06:11;;;;;;;104.57;29.27;;;4.90;99.00;;;;;;5019052;28;20024;-68
2020/12/14 00:08:36;;;;;;;94.50;29.85;;;4.90;98.90;;;;;;5036701;28;20036;-69
2020/12/14 00:11:02;;;;;;;94.22;28.92;;;4.80;98.90;;;;;;5037930;28;20060;-68
2020/12/14 00:13:28;;;;;;;91.72;28.05;;;4.90;98.90;;;;;;5036366;28;20108;-67
2020/12/14 00:15:54;;;;;;;98.97;29.58;;;4.80;98.90;;;;;;5035701;28;20036;-67
2020/12/14 00:18:19;;;;;;;87.57;28.30;;;4.80;98.90;;;;;;5036701;28;20584;-67
2020/12/14 00:20:45;;;;;;;89.88;27.42;;;4.80;98.90;;;;;;5034757;28;20124;-68
2020/12/14 00:23:11;;;;;;;89.68;26.70;;;4.80;98.80;;;;;;5018359;28;20032;-68
2020/12/14 00:25:36;;;;;;;95.07;29.48;;;4.80;98.80;;;;;;5035161;28;20500;-68
2020/12/14 00:28:02;;;;;;;84.22;26.85;;;4.80;98.80;;;;;;5036503;28;20052;-68
2020/12/14 00:30:28;;;;;;;94.20;29.25;;;4.80;98.80;;;;;;5034340;28;20504;-67
2020/12/14 00:32:53;;;;;;;78.22;28.75;;;4.90;98.70;;;;;;5035335;28;20105;-69
2020/12/14 00:35:19;;;;;;;78.60;26.35;;;4.90;98.70;;;;;;5044636;28;20115;-68
2020/12/14 00:37:45;;;;;;;70.93;26.80;;;4.90;98.70;;;;;;5047244;28;20040;-67
2020/12/14 00:40:10;;;;;;;71.70;26.60;;;4.90;98.60;;;;;;5045198;28;20139;-70
2020/12/14 00:42:41;;;;;;;65.18;26.15;;;4.90;98.60;;;;;;5043517;28;20033;-68
2020/12/14 00:45:07;;;;;;;77.38;26.63;;;4.90;98.60;;;;;;5047674;28;20453;-68
2020/12/14 00:47:32;;;;;;;60.88;24.63;;;4.90;98.50;;;;;;5027149;28;20056;-68
2020/12/14 00:49:58;;;;;;;57.83;24.27;;;5.00;98.50;;;;;;5048333;28;20025;-68
2020/12/14 00:52:23;;;;;;;63.60;24.92;;;5.00;98.50;;;;;;5046779;28;20076;-67
2020/12/14 00:54:49;;;;;;;58.10;23.15;;;5.00;98.30;;;;;;5045527;28;20036;-67
2020/12/14 00:57:14;;;;;;;54.72;23.73;;;5.00;98.20;;;;;;5046547;28;20489;-68
2020/12/14 00:59:40;;;;;;;58.70;23.80;;;5.00;98.10;;;;;;5046843;28;20160;-68
2020/12/14 01:02:05;;;;;;;49.72;23.02;;;5.00;98.10;;;;;;5045304;28;20029;-68
2020/12/14 01:04:31;;;;;;;53.35;22.25;;;5.00;98.00;;;;;;5046464;28;20041;-68
2020/12/14 01:06:57;;;;;;;48.38;22.48;;;5.00;98.00;;;;;;5042821;28;20041;-68
2020/12/14 01:09:22;;;;;;;47.88;21.70;;;5.00;97.90;;;;;;5037060;28;20090;-67
2020/12/14 01:11:48;;;;;;;45.47;21.83;;;5.00;97.80;;;;;;5047935;28;20433;-67
2020/12/14 01:14:13;;;;;;;46.95;21.50;;;5.00;97.80;;;;;;5046884;28;20033;-70
2020/12/14 01:16:39;;;;;;;42.15;20.38;;;5.00;97.80;;;;;;5027684;28;20060;-67
2020/12/14 01:19:05;;;;;;;44.05;20.33;;;5.00;97.70;;;;;;5047116;28;20073;-68
2020/12/14 01:21:30;;;;;;;42.97;19.67;;;5.00;97.60;;;;;;5044121;28;20059;-68
2020/12/14 01:23:56;;;;;;;39.72;20.08;;;4.90;97.60;;;;;;5046692;28;20025;-67
2020/12/14 01:26:21;;;;;;;47.10;21.38;;;5.00;97.60;;;;;;5042845;28;20052;-67
2020/12/14 01:28:47;;;;;;;42.03;19.95;;;5.00;97.70;;;;;;5046689;28;20035;-68
2020/12/14 01:31:13;;;;;;;45.45;20.48;;;4.90;97.70;;;;;;5044268;28;20032;-69
2020/12/14 01:33:39;;;;;;;46.53;20.42;;;5.00;97.60;;;;;;5045888;28;20465;-67
2020/12/14 01:36:04;;;;;;;41.63;20.17;;;5.00;97.60;;;;;;5043534;28;20029;-68
2020/12/14 01:38:30;;;;;;;37.05;19.63;;;5.00;97.50;;;;;;5046382;28;20029;-67
2020/12/14 01:40:56;;;;;;;42.42;19.67;;;5.00;97.40;;;;;;5044970;28;20028;-69
2020/12/14 01:43:22;;;;;;;37.15;18.45;;;5.10;97.40;;;;;;5044349;28;20031;-69
2020/12/14 01:45:52;;;;;;;35.85;18.38;;;5.00;97.10;;;;;;5045208;28;20402;-68
2020/12/14 01:48:18;;;;;;;32.35;18.42;;;5.10;97.10;;;;;;5046047;28;20111;-70
2020/12/14 01:50:44;;;;;;;32.85;18.42;;;5.10;97.00;;;;;;5046390;28;20025;-67
2020/12/14 01:53:11;;;;;;;33.10;17.00;;;5.00;97.00;;;;;;5045821;28;20047;-68
2020/12/14 01:55:41;;;;;;;28.58;16.52;;;5.10;96.90;;;;;;5045100;28;20029;-67
2020/12/14 01:58:08;;;;;;;29.85;15.85;;;5.00;96.90;;;;;;5047228;28;20081;-67
2020/12/14 02:00:33;;;;;;;27.10;16.10;;;5.00;96.80;;;;;;5045644;28;20029;-68
2020/12/14 02:02:59;;;;;;;27.70;15.77;;;5.00;96.70;;;;;;5045913;28;20059;-67
2020/12/14 02:05:25;;;;;;;29.73;16.40;;;4.90;96.70;;;;;;5042996;28;20116;-68
2020/12/14 02:07:50;;;;;;;30.48;16.77;;;4.90;96.70;;;;;;5045295;28;20132;-67
2020/12/14 02:10:16;;;;;;;27.65;16.30;;;4.90;96.60;;;;;;5044945;28;20024;-67
2020/12/14 02:12:42;;;;;;;30.95;17.23;;;5.00;96.30;;;;;;5045321;28;20041;-68
2020/12/14 02:15:08;;;;;;;30.13;16.67;;;4.90;96.30;;;;;;5044970;28;20098;-68
2020/12/14 02:17:34;;;;;;;30.67;15.80;;;4.80;96.50;;;;;;5045543;28;20046;-67
2020/12/14 02:19:59;;;;;;;32.67;16.85;;;4.80;96.50;;;;;;5046291;28;20434;-68
2020/12/14 02:22:26;;;;;;;30.05;17.08;;;4.70;96.50;;;;;;5044037;28;20430;-67
2020/12/14 02:25:05;;;;;;;34.92;16.95;;;4.70;96.70;;;;;;5041903;28;20465;-69
2020/12/14 02:27:33;;;;;;;28.52;15.57;;;4.70;96.60;;;;;;5042759;28;20036;-68
2020/12/14 02:29:59;;;;;;;30.42;16.55;;;4.60;96.60;;;;;;5044920;28;20045;-67
2020/12/14 02:32:26;;;;;;;36.38;17.27;;;4.60;96.90;;;;;;5042339;28;20038;-68
2020/12/14 02:34:52;;;;;;;39.13;16.67;;;4.60;97.00;;;;;;5037289;28;20066;-67
2020/12/14 02:37:21;;;;;;;38.28;18.48;;;4.60;96.70;;;;;;5045018;28;20041;-68
2020/12/14 02:39:47;;;;;;;33.65;16.13;;;4.70;96.70;;;;;;5045748;28;20025;-69
2020/12/14 02:42:16;;;;;;;31.90;16.52;;;4.60;96.60;;;;;;5044057;28;20508;-69
2020/12/14 02:44:42;;;;;;;29.10;16.38;;;4.50;96.80;;;;;;5044140;28;20454;-67
2020/12/14 02:47:08;;;;;;;34.55;17.42;;;4.50;96.90;;;;;;5044746;28;20103;-68
2020/12/14 02:49:35;;;;;;;36.78;17.08;;;4.50;97.00;;;;;;5045458;28;20041;-68
2020/12/14 02:52:01;;;;;;;35.42;17.08;;;4.50;97.10;;;;;;5044765;28;20025;-68
2020/12/14 02:54:26;;;;;;;33.28;16.45;;;4.50;96.90;;;;;;5044277;28;20094;-66
2020/12/14 02:56:53;;;;;;;34.33;16.80;;;4.50;96.80;;;;;;5043499;28;20258;-68
2020/12/14 02:59:20;;;;;;;32.97;16.25;;;4.50;96.90;;;;;;5043635;28;20025;-67
2020/12/14 03:01:47;;;;;;;28.17;14.93;;;4.40;96.70;;;;;;5043669;28;20033;-68
2020/12/14 03:04:13;;;;;;;34.83;16.67;;;4.50;96.70;;;;;;5045015;28;20112;-67
2020/12/14 03:06:38;;;;;;;29.58;15.35;;;4.50;96.40;;;;;;5041482;28;20809;-68
2020/12/14 03:09:04;;;;;;;29.52;16.20;;;4.60;96.50;;;;;;5040794;28;20025;-67
2020/12/14 03:11:30;;;;;;;33.83;15.73;;;4.60;96.30;;;;;;5043826;28;20481;-67
2020/12/14 03:13:56;;;;;;;26.85;15.10;;;4.60;96.30;;;;;;5044228;28;20128;-67
2020/12/14 03:16:21;;;;;;;25.23;14.02;;;4.60;96.20;;;;;;5044636;28;20128;-69
2020/12/14 03:18:47;;;;;;;26.20;13.63;;;4.60;96.30;;;;;;5045633;28;20029;-68
2020/12/14 03:21:13;;;;;;;23.45;13.95;;;4.60;96.20;;;;;;5045525;28;20039;-67
2020/12/14 03:23:39;;;;;;;21.73;13.30;;;4.60;96.30;;;;;;5044272;28;20035;-68
2020/12/14 03:26:04;;;;;;;22.17;13.55;;;4.70;95.80;;;;;;5047105;28;20025;-67
2020/12/14 03:28:30;;;;;;;25.45;13.50;;;4.70;95.80;;;;;;5041801;28;20116;-68
2020/12/14 03:30:55;;;;;;;21.38;12.48;;;4.60;96.10;;;;;;5056520;28;20033;-67
2020/12/14 03:33:21;;;;;;;22.20;13.07;;;4.60;96.20;;;;;;5029535;28;20127;-67
2020/12/14 03:35:47;;;;;;;26.02;13.52;;;4.70;95.90;;;;;;5049763;28;20071;-68
2020/12/14 03:38:16;;;;;;;24.77;13.20;;;4.60;95.90;;;;;;5043726;28;20032;-67
2020/12/14 03:40:43;;;;;;;30.08;13.50;;;4.60;96.00;;;;;;5045103;28;20484;-67
2020/12/14 03:43:09;;;;;;;21.08;12.90;;;4.60;95.90;;;;;;5043915;28;20308;-68
2020/12/14 03:45:35;;;;;;;23.30;13.25;;;4.60;96.10;;;;;;5042749;28;20159;-67
2020/12/14 03:48:00;;;;;;;20.63;12.75;;;4.70;95.90;;;;;;5044932;28;20072;-67
2020/12/14 03:50:26;;;;;;;26.25;13.20;;;4.70;95.80;;;;;;5027117;28;20357;-68
2020/12/14 03:52:52;;;;;;;21.13;12.77;;;4.70;95.70;;;;;;5017001;28;20553;-68
2020/12/14 03:55:17;;;;;;;24.85;12.70;;;4.70;95.70;;;;;;5027942;28;20120;-68
2020/12/14 03:57:43;;;;;;;23.42;13.05;;;4.70;95.70;;;;;;5045728;28;20118;-68
2020/12/14 04:00:09;;;;;;;20.80;12.57;;;4.70;95.80;;;;;;5046834;28;20095;-67
2020/12/14 04:02:34;;;;;;;24.75;14.10;;;4.70;95.70;;;;;;5047740;28;20044;-67
2020/12/14 04:05:00;;;;;;;19.60;12.88;;;4.70;95.50;;;;;;5044966;28;20044;-68
2020/12/14 04:07:27;;;;;;;22.25;12.85;;;4.70;95.70;;;;;;5046539;28;20040;-68
2020/12/14 04:09:52;;;;;;;21.40;12.85;;;4.70;95.60;;;;;;5035446;28;20045;-68
2020/12/14 04:12:18;;;;;;;24.58;12.85;;;4.60;95.60;;;;;;5044498;28;20162;-67
2020/12/14 04:14:43;;;;;;;20.00;12.40;;;4.60;95.40;;;;;;5048455;28;20040;-67
2020/12/14 04:17:09;;;;;;;19.95;11.98;;;4.70;95.40;;;;;;5046768;28;20661;-68
2020/12/14 04:19:34;;;;;;;20.77;12.60;;;4.60;95.40;;;;;;5047422;28;20025;-67
2020/12/14 04:22:00;;;;;;;20.58;11.48;;;4.70;95.10;;;;;;5047101;28;20132;-66
2020/12/14 04:24:26;;;;;;;27.25;12.57;;;4.70;95.10;;;;;;5048124;28;20396;-69
2020/12/14 04:26:53;;;;;;;22.92;12.73;;;4.60;95.10;;;;;;5046889;28;22714;-67
2020/12/14 04:29:20;;;;;;;18.65;11.73;;;4.70;94.90;;;;;;5040784;28;20091;-67
2020/12/14 04:31:45;;;;;;;19.80;11.23;;;4.70;95.10;;;;;;5045855;28;20079;-67
2020/12/14 04:34:11;;;;;;;19.45;12.15;;;4.70;95.00;;;;;;5048105;28;20435;-67
2020/12/14 04:36:37;;;;;;;18.55;11.18;;;4.70;95.00;;;;;;5047651;28;20031;-70
2020/12/14 04:39:04;;;;;;;19.42;11.52;;;4.70;95.00;;;;;;5045059;28;20138;-67
2020/12/14 04:41:29;;;;;;;18.20;11.02;;;4.70;95.00;;;;;;5047950;28;20055;-67
2020/12/14 04:43:58;;;;;;;17.60;10.38;;;4.70;95.00;;;;;;5046501;28;20107;-67
2020/12/14 04:46:27;;;;;;;17.95;10.77;;;4.70;94.90;;;;;;5047546;28;20259;-67
2020/12/14 04:48:53;;;;;;;17.00;10.77;;;4.70;95.10;;;;;;5043534;28;20360;-67
2020/12/14 04:51:19;;;;;;;17.33;10.18;;;4.70;94.80;;;;;;5066924;28;20021;-68
2020/12/14 04:53:46;;;;;;;20.15;10.95;;;4.70;95.20;;;;;;5048383;28;20025;-68
2020/12/14 04:56:17;;;;;;;20.00;10.48;;;4.60;95.10;;;;;;5048059;28;20028;-67
2020/12/14 04:58:43;;;;;;;16.17;9.82;;;4.70;94.60;;;;;;5044143;28;20144;-67
2020/12/14 05:01:09;;;;;;;15.75;9.32;;;4.70;94.80;;;;;;5062365;28;20349;-67
2020/12/14 05:03:35;;;;;;;14.77;9.05;;;4.70;94.60;;;;;;5040292;28;20319;-67
2020/12/14 05:06:01;;;;;;;17.75;10.38;;;4.80;94.70;;;;;;5046168;28;20021;-68
2020/12/14 05:08:27;;;;;;;15.68;9.82;;;4.70;94.80;;;;;;5046212;28;20036;-67
2020/12/14 05:10:53;;;;;;;17.38;9.95;;;4.70;94.90;;;;;;5055397;28;20044;-67
2020/12/14 05:13:19;;;;;;;16.55;8.95;;;4.70;94.80;;;;;;5025170;28;20401;-67
2020/12/14 05:15:45;;;;;;;16.50;9.50;;;4.70;95.00;;;;;;5027533;28;20125;-68
2020/12/14 05:18:16;;;;;;;13.60;9.82;;;4.70;95.10;;;;;;5038508;28;20476;-67
2020/12/14 05:20:43;;;;;;;12.85;8.68;;;4.70;95.10;;;;;;5043737;28;20422;-67
2020/12/14 05:23:10;;;;;;;15.48;8.93;;;4.70;95.20;;;;;;5043997;28;20040;-68
2020/12/14 05:25:37;;;;;;;13.27;8.38;;;4.80;94.40;;;;;;5043796;28;20045;-68
2020/12/14 05:28:22;;;;;;;14.63;9.27;;;4.80;94.70;;;;;;5045097;28;20040;-67
2020/12/14 05:30:51;;;;;;;14.15;8.30;;;4.80;94.90;;;;;;5039611;28;20052;-68
2020/12/14 05:33:19;;;;;;;16.65;8.75;;;4.80;94.80;;;;;;5045753;28;20029;-68
2020/12/14 05:35:45;;;;;;;13.88;8.23;;;4.80;94.70;;;;;;5043877;28;20025;-68
2020/12/14 05:38:15;;;;;;;14.15;8.32;;;4.90;94.30;;;;;;5045348;28;20400;-68
2020/12/14 05:40:46;;;;;;;13.93;7.93;;;4.80;94.50;;;;;;5026957;28;20036;-68
2020/12/14 05:43:14;;;;;;;11.73;7.20;;;4.90;94.20;;;;;;5045917;28;20462;-68
2020/12/14 05:45:40;;;;;;;11.77;6.97;;;4.90;94.30;;;;;;5045395;28;20508;-68
2020/12/14 05:48:24;;;;;;;14.68;7.63;;;5.00;93.60;;;;;;5043332;28;20503;-68
2020/12/14 05:50:53;;;;;;;11.35;7.60;;;4.90;94.00;;;;;;5020162;28;20037;-69
2020/12/14 05:53:20;;;;;;;14.45;6.78;;;4.90;93.90;;;;;;5043009;28;20362;-68
2020/12/14 05:55:46;;;;;;;12.18;6.50;;;4.90;93.90;;;;;;5045063;28;20465;-69
2020/12/14 05:58:16;;;;;;;13.70;7.30;;;5.00;93.50;;;;;;5043192;28;20047;-69
2020/12/14 06:00:46;;;;;;;12.15;6.47;;;4.90;93.80;;;;;;5041566;28;20575;-68
2020/12/14 06:03:12;;;;;;;11.80;7.05;;;4.90;93.70;;;;;;5045012;28;20086;-68
2020/12/14 06:05:38;;;;;;;12.85;7.32;;;5.00;93.60;;;;;;5042535;28;20076;-70
2020/12/14 06:08:31;;;;;;;12.18;6.25;;;5.00;93.30;;;;;;5038538;28;20029;-68
2020/12/14 06:11:00;;;;;;;11.13;7.05;;;5.00;93.60;;;;;;5033749;28;20032;-68
2020/12/14 06:13:33;;;;;;;10.10;6.35;;;5.00;93.70;;;;;;5038376;28;20037;-68
2020/12/14 06:16:02;;;;;;;14.88;6.53;;;4.90;93.90;;;;;;5044918;28;20040;-68
2020/12/14 06:18:36;;;;;;;9.27;6.30;;;4.90;94.00;;;;;;5044892;28;20173;-70
2020/12/14 06:21:02;;;;;;;12.57;6.93;;;4.90;93.80;;;;;;5045366;28;20057;-68
2020/12/14 06:23:38;;;;;;;11.98;6.55;;;5.00;93.40;;;;;;5044131;28;20075;-68
2020/12/14 06:26:06;;;;;;;10.88;6.57;;;5.00;93.40;;;;;;5045452;28;20025;-67
2020/12/14 06:28:34;;;;;;;11.18;6.70;;;4.90;93.60;;;;;;5041558;28;20063;-68
2020/12/14 06:31:00;;;;;;;14.48;6.80;;;5.00;93.30;;;;;;5038557;28;20044;-68
2020/12/14 06:33:40;;;;;;;13.20;6.05;;;4.90;93.50;;;;;;5032081;28;20028;-68
2020/12/14 06:36:18;;;;;;;11.27;6.70;;;4.90;93.60;;;;;;5028924;28;20055;-68
2020/12/14 06:38:45;;;;;;;18.27;8.23;;;4.80;93.60;;;;;;5044978;28;20134;-68
2020/12/14 06:41:30;;;;;;;13.30;7.93;;;4.80;93.80;;;;;;5044193;28;20099;-68
2020/12/14 06:44:13;;;;;;;13.82;7.78;;;4.80;93.90;;;;;;5041515;28;20090;-69
2020/12/14 06:46:38;;;;;;;14.73;7.55;;;4.90;93.50;;;;;;5026009;28;20021;-68
2020/12/14 06:49:09;;;;;;;10.48;6.60;;;4.80;93.60;;;;;;5043843;28;20039;-68
2020/12/14 06:51:54;;;;;;;11.38;6.40;;;4.90;93.10;;;;;;5028745;28;20031;-68
2020/12/14 06:54:42;;;;;;;10.63;6.43;;;4.90;93.30;;;;;;5030381;28;20098;-68
2020/12/14 06:57:12;;;;;;;11.80;6.63;;;5.00;93.20;;;;;;5044615;28;20061;-69
2020/12/14 06:59:39;;;;;;;10.13;6.22;;;5.00;93.30;;;;;;5042604;28;20032;-69
2020/12/14 07:02:09;;;;;;;12.27;6.97;;;5.00;92.70;;;;;;5040652;28;20044;-70
2020/12/14 07:04:38;;;;;;;12.90;6.72;;;5.10;92.80;;;;;;5042456;28;20071;-69
2020/12/14 07:07:04;;;;;;;10.65;6.40;;;5.00;93.00;;;;;;5045973;28;20037;-68
2020/12/14 07:09:35;;;;;;;13.45;6.18;;;5.00;92.90;;;;;;5066339;28;20623;-68
2020/12/14 07:12:10;;;;;;;11.30;6.57;;;5.10;92.70;;;;;;5043056;28;20420;-67
2020/12/14 07:14:48;;;;;;;11.35;5.80;;;5.10;92.50;;;;;;5043230;28;20026;-70
2020/12/14 07:17:25;;;;;;;10.98;6.00;;;5.10;92.50;;;;;;5043879;28;20090;-68
2020/12/14 07:19:55;;;;;;;10.07;5.63;;;5.10;92.60;;;;;;5043813;28;20087;-68
2020/12/14 07:22:33;;;;;;;9.43;6.10;;;5.10;92.50;;;;;;5041538;28;20033;-68
2020/12/14 07:25:05;;;;;;;11.95;6.15;;;5.10;92.60;;;;;;5045631;28;20100;-69
2020/12/14 07:27:33;;;;;;;10.60;6.20;;;5.10;92.30;;;;;;5044574;28;20041;-68
2020/12/14 07:30:10;;;;;;;8.65;5.32;;;5.10;92.80;;;;;;5041931;28;20119;-68
2020/12/14 07:32:36;;;;;;;12.10;5.80;;;5.10;92.50;;;;;;5048539;28;20108;-68
2020/12/14 07:35:06;;;;;;;13.73;5.05;;;5.10;92.50;;;;;;5050034;28;20028;-68
2020/12/14 07:37:32;;;;;;;10.38;5.22;;;5.20;92.50;;;;;;5044516;28;20175;-68
2020/12/14 07:39:57;;;;;;;8.27;5.15;;;5.20;92.50;;;;;;5049910;28;20103;-67
2020/12/14 07:42:26;;;;;;;8.60;5.15;;;5.10;92.70;;;;;;5047196;28;20441;-69
2020/12/14 07:45:10;;;;;;;11.38;5.07;;;5.20;92.10;;;;;;5044614;28;20047;-69
2020/12/14 07:47:37;;;;;;;10.95;5.30;;;5.20;92.00;;;;;;5042938;28;20055;-72
2020/12/14 07:50:22;;;;;;;7.57;4.93;;;5.20;92.30;;;;;;5046712;28;20098;-69
2020/12/14 07:52:55;;;;;;;8.50;4.80;;;5.20;92.30;;;;;;5045298;28;20028;-68
2020/12/14 07:55:22;;;;;;;9.75;5.38;;;5.30;91.60;;;;;;5046169;28;20254;-68
2020/12/14 07:57:48;;;;;;;9.35;5.05;;;5.30;91.70;;;;;;5047232;28;20047;-68
2020/12/14 08:00:18;;;;;;;10.52;4.97;;;5.30;91.40;;;;;;5044652;28;20437;-68
2020/12/14 08:02:45;;;;;;;9.50;5.28;;;5.30;91.60;;;;;;5048159;28;20366;-68
2020/12/14 08:05:16;;;;;;;8.95;4.70;;;5.30;91.70;;;;;;5062306;28;20028;-68
2020/12/14 08:07:52;;;;;;;8.85;4.82;;;5.40;91.30;;;;;;5064277;22;20053;-68
2020/12/14 08:10:37;;;;;;;6.88;4.95;;;5.40;91.30;;;;;;5054020;28;20101;-69
2020/12/14 08:13:11;;;;;;;7.55;4.40;;;5.40;91.20;;;;;;5055199;28;20032;-68
2020/12/14 08:15:39;;;;;;;9.10;4.78;;;5.50;91.60;;;;;;5046810;28;20412;-69
2020/12/14 08:18:06;;;;;;;8.07;4.40;;;5.50;91.20;;;;;;5049734;28;20078;-68
2020/12/14 08:20:34;;;;;;;6.28;4.30;;;5.50;91.00;;;;;;5051863;28;20025;-69
2020/12/14 08:23:02;;;;;;;8.77;4.60;;;5.60;90.30;;;;;;5048904;28;20055;-68
2020/12/14 08:25:31;;;;;;;10.40;4.45;;;5.60;90.30;;;;;;5052370;28;20107;-68
2020/12/14 08:27:59;;;;;;;7.43;4.40;;;5.60;90.60;;;;;;5050048;28;20052;-69
2020/12/14 08:30:26;;;;;;;8.38;4.10;;;5.60;90.20;;;;;;5031490;28;20029;-67
2020/12/14 08:33:10;;;;;;;9.48;4.50;;;5.60;90.50;;;;;;5042965;28;20393;-69
2020/12/14 08:35:40;;;;;;;8.35;4.32;;;5.60;90.80;;;;;;5044192;28;20024;-67
2020/12/14 08:38:11;;;;;;;10.40;4.47;;;5.60;91.10;;;;;;5050706;28;20037;-69
2020/12/14 08:40:38;;;;;;;7.47;3.92;;;5.60;90.30;;;;;;5049519;28;20033;-68
2020/12/14 08:43:15;;;;;;;7.60;4.18;;;5.70;90.20;;;;;;5051095;28;20017;-68
2020/12/14 08:45:56;;;;;;;6.07;4.10;;;5.70;90.60;;;;;;5050593;28;20451;-71
2020/12/14 08:48:22;;;;;;;6.95;4.32;;;5.70;90.40;;;;;;5049733;28;20544;-69
2020/12/14 08:50:48;;;;;;;7.93;3.90;;;5.70;90.10;;;;;;5051555;28;20029;-69
2020/12/14 08:53:13;;;;;;;6.03;3.63;;;5.70;90.50;;;;;;5045036;28;20032;-68
2020/12/14 08:55:40;;;;;;;7.40;4.15;;;5.70;91.00;;;;;;5044654;28;20035;-69
2020/12/14 08:58:06;;;;;;;5.95;3.88;;;5.70;90.90;;;;;;5049154;28;20071;-68
2020/12/14 09:00:32;;;;;;;7.13;3.60;;;5.70;90.80;;;;;;5050171;28;20029;-69
2020/12/14 09:03:03;;;;;;;7.35;3.58;;;5.70;91.10;;;;;;5046926;28;20756;-68
2020/12/14 09:05:34;;;;;;;9.63;4.03;;;5.70;91.40;;;;;;5051159;28;20029;-68
2020/12/14 09:08:16;;;;;;;6.93;3.67;;;5.70;92.40;;;;;;5059708;28;20086;-68
2020/12/14 09:10:56;;;;;;;7.30;3.83;;;5.60;92.90;;;;;;5045355;28;20576;-68
2020/12/14 09:13:22;;;;;;;7.78;3.97;;;5.60;93.80;;;;;;5048229;28;20041;-68
2020/12/14 09:16:00;;;;;;;6.80;3.65;;;5.50;94.20;;;;;;5033961;28;20026;-68
2020/12/14 09:18:26;;;;;;;7.85;4.20;;;5.40;94.70;;;;;;5045149;28;20069;-68
2020/12/14 09:21:02;;;;;;;7.20;3.95;;;5.40;95.20;;;;;;5053832;28;20447;-68
2020/12/14 09:23:28;;;;;;;7.10;3.97;;;5.40;95.50;;;;;;5045634;28;20559;-66
2020/12/14 09:25:53;;;;;;;7.38;4.22;;;5.40;95.60;;;;;;5043325;28;20029;-68
2020/12/14 09:28:19;;;;;;;13.02;4.43;;;5.30;95.90;;;;;;5047865;28;20025;-69
2020/12/14 09:30:44;;;;;;;9.00;4.80;;;5.30;96.20;;;;;;5049234;28;20109;-67
2020/12/14 09:33:10;;;;;;;9.80;4.32;;;5.30;96.50;;;;;;5046982;28;20432;-68
2020/12/14 09:35:37;;;;;;;8.02;4.63;;;5.30;96.60;;;;;;5047966;28;20031;-68
2020/12/14 09:38:02;;;;;;;8.90;4.78;;;5.30;96.80;;;;;;5046424;28;20047;-67
2020/12/14 09:40:28;;;;;;;13.00;4.63;;;5.30;96.90;;;;;;5047316;28;20025;-68
2020/12/14 09:42:54;;;;;;;9.95;4.50;;;5.30;97.00;;;;;;5043322;28;20100;-71
2020/12/14 09:45:19;;;;;;;8.10;4.65;;;5.30;97.10;;;;;;5037582;28;20509;-68
2020/12/14 09:47:47;;;;;;;8.23;4.57;;;5.30;97.10;;;;;;5038654;28;20068;-68
2020/12/14 09:50:13;;;;;;;8.68;3.90;;;5.30;97.20;;;;;;5050166;28;20037;-68
2020/12/14 09:52:39;;;;;;;9.52;4.60;;;5.40;97.30;;;;;;5046179;28;20079;-68
2020/12/14 09:55:05;;;;;;;8.40;4.47;;;5.40;97.30;;;;;;5046207;28;20033;-70
2020/12/14 09:57:31;;;;;;;7.70;4.25;;;5.40;97.30;;;;;;5033851;28;20040;-67
2020/12/14 09:59:56;;;;;;;8.68;4.70;;;5.40;97.30;;;;;;5047801;28;20025;-67
2020/12/14 10:02:22;;;;;;;11.05;4.47;;;5.40;97.30;;;;;;5048537;28;20036;-68
2020/12/14 10:04:47;;;;;;;10.00;3.65;;;5.50;97.30;;;;;;5047319;28;20025;-67
2020/12/14 10:07:13;;;;;;;9.20;4.20;;;5.50;97.30;;;;;;5039149;28;20554;-68
2020/12/14 10:09:38;;;;;;;9.38;4.03;;;5.50;97.30;;;;;;5049271;28;20108;-68
2020/12/14 10:12:04;;;;;;;9.02;4.18;;;5.50;97.30;;;;;;5045344;28;20036;-68
2020/12/14 10:14:30;;;;;;;8.63;4.60;;;5.50;97.30;;;;;;5047903;28;20439;-68
2020/12/14 10:16:55;;;;;;;9.50;4.28;;;5.50;97.20;;;;;;5048378;28;20412;-68
2020/12/14 10:19:21;;;;;;;8.50;4.25;;;5.50;97.20;;;;;;5048934;28;20115;-68
2020/12/14 10:21:46;;;;;;;9.05;4.40;;;5.50;96.90;;;;;;5045844;28;20075;-69
2020/12/14 10:24:12;;;;;;;9.82;4.18;;;5.60;97.00;;;;;;5046318;28;20021;-68
2020/12/14 10:26:38;;;;;;;10.93;4.40;;;5.60;97.10;;;;;;5048477;28;20535;-66
2020/12/14 10:29:04;;;;;;;12.27;4.75;;;5.60;96.80;;;;;;5037773;28;20056;-69
2020/12/14 10:31:30;;;;;;;8.70;3.92;;;5.60;96.60;;;;;;5042592;28;20017;-68
2020/12/14 10:33:57;;;;;;;10.13;4.20;;;5.70;96.40;;;;;;5044808;28;20504;-68
2020/12/14 10:36:23;;;;;;;6.32;3.90;;;5.70;96.50;;;;;;5046935;28;20037;-68
2020/12/14 10:38:49;;;;;;;7.05;3.70;;;5.70;96.60;;;;;;5046454;28;20059;-67
2020/12/14 10:41:17;;;;;;;11.73;4.35;;;5.70;96.70;;;;;;5054247;28;20067;-68
2020/12/14 10:43:43;;;;;;;10.90;3.85;;;5.70;96.80;;;;;;5036701;28;20047;-68
2020/12/14 10:46:09;;;;;;;7.80;3.80;;;5.70;96.90;;;;;;5045335;28;20492;-68
2020/12/14 10:48:34;;;;;;;8.63;3.90;;;5.80;96.70;;;;;;5041219;28;20035;-68
2020/12/14 10:51:00;;;;;;;8.95;3.47;;;5.80;96.80;;;;;;5047239;28;20041;-68
2020/12/14 10:53:25;;;;;;;8.57;3.42;;;5.80;96.80;;;;;;5046742;28;20097;-67
2020/12/14 10:55:51;;;;;;;10.25;3.70;;;5.80;96.70;;;;;;5042389;28;20325;-68
2020/12/14 10:58:17;;;;;;;7.68;3.65;;;5.90;96.70;;;;;;5046809;28;20040;-68
2020/12/14 11:00:43;;;;;;;10.77;3.45;;;5.90;96.60;;;;;;5045837;28;20037;-68
2020/12/14 11:03:08;;;;;;;8.57;3.33;;;5.90;96.70;;;;;;5041206;28;20029;-69
2020/12/14 11:05:34;;;;;;;8.75;3.58;;;5.90;96.80;;;;;;5038542;28;20032;-68
2020/12/14 11:08:00;;;;;;;8.80;3.38;;;6.00;96.80;;;;;;5051142;28;20059;-68
2020/12/14 11:10:25;;;;;;;7.85;3.42;;;6.00;96.90;;;;;;5060452;28;20385;-68
2020/12/14 11:12:51;;;;;;;9.38;3.30;;;6.00;96.90;;;;;;5051338;28;20036;-68
2020/12/14 11:15:16;;;;;;;6.63;3.55;;;6.00;96.90;;;;;;5044467;28;20025;-68
2020/12/14 11:17:43;;;;;;;6.55;3.75;;;6.00;96.80;;;;;;5030791;28;20484;-69
2020/12/14 11:20:09;;;;;;;6.40;3.40;;;6.10;96.80;;;;;;5037458;28;20028;-68
2020/12/14 11:22:36;;;;;;;7.15;3.38;;;6.10;96.80;;;;;;5027449;28;20021;-68
2020/12/14 11:25:04;;;;;;;7.95;3.10;;;6.10;96.80;;;;;;5037464;28;20385;-70
2020/12/14 11:27:29;;;;;;;8.55;3.15;;;6.10;96.80;;;;;;5042421;28;20167;-68
2020/12/14 11:29:55;;;;;;;6.97;4.07;;;6.10;96.90;;;;;;5044114;28;20115;-68
2020/12/14 11:32:20;;;;;;;9.18;3.25;;;6.20;96.80;;;;;;5043055;28;20079;-69
2020/12/14 11:34:46;;;;;;;6.82;3.70;;;6.20;96.80;;;;;;5044787;28;20029;-69
2020/12/14 11:37:12;;;;;;;7.80;3.20;;;6.30;96.80;;;;;;5044226;28;20500;-68
2020/12/14 11:39:37;;;;;;;5.68;3.38;;;6.30;96.90;;;;;;5049252;28;20101;-68
2020/12/14 11:42:03;;;;;;;8.05;3.75;;;6.40;96.80;;;;;;5045115;28;20025;-70
2020/12/14 11:44:29;;;;;;;7.68;3.38;;;6.50;96.80;;;;;;5045301;28;20025;-68
2020/12/14 11:46:54;;;;;;;6.72;3.30;;;6.50;96.70;;;;;;5049723;28;20270;-68
2020/12/14 11:49:20;;;;;;;7.32;3.17;;;6.50;96.50;;;;;;5043503;28;20021;-68
2020/12/14 11:51:49;;;;;;;10.60;3.00;;;6.50;96.60;;;;;;5042777;28;20029;-69
2020/12/14 11:54:16;;;;;;;5.07;3.15;;;6.60;96.50;;;;;;5042075;28;20028;-69
2020/12/14 11:56:44;;;;;;;9.32;3.78;;;6.60;96.50;;;;;;5046882;28;20033;-70
2020/12/14 11:59:10;;;;;;;11.13;3.38;;;6.60;96.60;;;;;;5029279;28;20446;-68
2020/12/14 12:01:36;;;;;;;5.20;3.00;;;6.60;96.50;;;;;;5047374;28;20032;-70
2020/12/14 12:04:01;;;;;;;8.88;3.60;;;6.60;96.20;;;;;;5046750;28;20266;-68
2020/12/14 12:06:29;;;;;;;6.15;3.10;;;6.70;96.20;;;;;;5044410;28;20021;-69
2020/12/14 12:08:55;;;;;;;9.65;3.17;;;6.70;96.20;;;;;;5040605;28;20045;-69
2020/12/14 12:11:21;;;;;;;8.07;2.88;;;6.80;96.40;;;;;;5042730;28;20516;-68
2020/12/14 12:13:47;;;;;;;8.05;2.58;;;6.80;96.50;;;;;;5045364;28;20048;-69
2020/12/14 12:16:13;;;;;;;5.93;3.00;;;6.80;96.10;;;;;;5045007;28;20112;-70
2020/12/14 12:18:39;;;;;;;8.20;3.15;;;6.80;96.30;;;;;;5035168;28;20107;-68
2020/12/14 12:21:06;;;;;;;8.20;3.10;;;6.90;95.80;;;;;;5049070;28;20386;-68
2020/12/14 12:23:31;;;;;;;5.45;2.80;;;6.90;96.00;;;;;;5047836;28;20025;-68
2020/12/14 12:25:57;;;;;;;6.40;3.00;;;6.90;96.00;;;;;;5047743;28;20103;-68
2020/12/14 12:28:23;;;;;;;6.53;2.85;;;7.00;95.70;;;;;;5039314;28;20029;-70
2020/12/14 12:30:48;;;;;;;6.22;3.10;;;7.00;95.70;;;;;;5038039;28;20025;-69
2020/12/14 12:33:14;;;;;;;7.25;3.10;;;7.00;95.90;;;;;;5032946;28;20504;-70
2020/12/14 12:35:39;;;;;;;5.65;2.65;;;7.00;95.70;;;;;;5036837;28;20377;-68
2020/12/14 12:38:05;;;;;;;6.30;2.85;;;7.00;95.80;;;;;;5034464;28;20017;-68
2020/12/14 12:40:31;;;;;;;4.35;2.78;;;7.00;95.90;;;;;;5035446;28;20033;-69
2020/12/14 12:42:56;;;;;;;4.72;2.80;;;7.10;95.90;;;;;;5033515;28;20053;-69
2020/12/14 12:45:22;;;;;;;6.72;2.72;;;7.10;95.90;;;;;;5017374;28;20041;-67
2020/12/14 12:47:47;;;;;;;5.95;3.08;;;7.10;96.10;;;;;;5035535;28;20024;-69